sensor_id;sensor_type;location;lat;lon;timestamp;P1;durP1;ratioP1;P2;durP2;ratioP2
1975;SDS011;988;48.016;7.800;2023-05-29T00:02:13;19.47;;;17.97;;
1975;SDS011;988;48.016;7.800;2023-05-29T00:04:39;37.47;;;31.23;;
1975;SDS011;988;48.016;7.800;2023-05-29T00:07:05;23.83;;;21.73;;
1975;SDS011;988;48.016;7.800;2023-05-29T00:09:31;22.63;;;20.30;;
1975;SDS011;988;48.016;7.800;2023-05-29T00:11:56;24.17;;;21.97;;
1975;SDS011;988;48.016;7.800;2023-05-29T00:14:22;19.57;;;17.97;;
1975;SDS011;988;48.016;7.800;2023-05-29T00:16:49;21.88;;;19.98;;
1975;SDS011;988;48.016;7.800;2023-05-29T00:19:15;20.67;;;18.83;;
1975;SDS011;988;48.016;7.800;2023-05-29T00:21:46;20.98;;;19.17;;
1975;SDS011;988;48.016;7.800;2023-05-29T00:24:16;19.83;;;18.02;;
1975;SDS011;988;48.016;7.800;2023-05-29T00:26:42;19.70;;;18.00;;
1975;SDS011;988;48.016;7.800;2023-05-29T00:29:08;18.83;;;17.40;;
1975;SDS011;988;48.016;7.800;2023-05-29T00:31:34;20.30;;;18.60;;
1975;SDS011;988;48.016;7.800;2023-05-29T00:34:01;18.30;;;16.55;;
1975;SDS011;988;48.016;7.800;2023-05-29T00:36:27;18.27;;;16.50;;
1975;SDS011;988;48.016;7.800;2023-05-29T00:38:53;18.42;;;16.90;;
1975;SDS011;988;48.016;7.800;2023-05-29T00:41:19;21.50;;;18.13;;
1975;SDS011;988;48.016;7.800;2023-05-29T00:43:45;18.57;;;17.10;;
1975;SDS011;988;48.016;7.800;2023-05-29T00:46:10;19.40;;;17.83;;
1975;SDS011;988;48.016;7.800;2023-05-29T00:48:38;17.60;;;16.30;;
1975;SDS011;988;48.016;7.800;2023-05-29T00:51:03;18.50;;;16.70;;
1975;SDS011;988;48.016;7.800;2023-05-29T00:53:30;17.90;;;16.55;;
1975;SDS011;988;48.016;7.800;2023-05-29T00:55:56;16.55;;;14.85;;
1975;SDS011;988;48.016;7.800;2023-05-29T00:58:23;19.23;;;17.63;;
1975;SDS011;988;48.016;7.800;2023-05-29T01:00:48;19.77;;;17.87;;
1975;SDS011;988;48.016;7.800;2023-05-29T01:03:15;17.75;;;16.25;;
1975;SDS011;988;48.016;7.800;2023-05-29T01:05:41;16.83;;;15.52;;
1975;SDS011;988;48.016;7.800;2023-05-29T01:08:07;19.10;;;17.50;;
1975;SDS011;988;48.016;7.800;2023-05-29T01:10:33;17.23;;;15.87;;
1975;SDS011;988;48.016;7.800;2023-05-29T01:13:10;18.98;;;17.25;;
1975;SDS011;988;48.016;7.800;2023-05-29T01:23:51;20.63;;;18.58;;
1975;SDS011;988;48.016;7.800;2023-05-29T01:26:41;17.83;;;16.20;;
1975;SDS011;988;48.016;7.800;2023-05-29T01:29:07;17.73;;;16.23;;
1975;SDS011;988;48.016;7.800;2023-05-29T01:31:35;20.33;;;16.10;;
1975;SDS011;988;48.016;7.800;2023-05-29T01:34:04;19.75;;;17.75;;
1975;SDS011;988;48.016;7.800;2023-05-29T01:36:29;17.87;;;16.23;;
1975;SDS011;988;48.016;7.800;2023-05-29T01:38:57;18.42;;;16.92;;
1975;SDS011;988;48.016;7.800;2023-05-29T01:41:24;16.88;;;15.32;;
1975;SDS011;988;48.016;7.800;2023-05-29T01:43:51;16.90;;;15.18;;
1975;SDS011;988;48.016;7.800;2023-05-29T01:46:18;15.20;;;13.85;;
1975;SDS011;988;48.016;7.800;2023-05-29T01:48:45;17.02;;;15.65;;
1975;SDS011;988;48.016;7.800;2023-05-29T01:51:11;18.63;;;16.92;;
1975;SDS011;988;48.016;7.800;2023-05-29T01:53:38;19.35;;;17.67;;
1975;SDS011;988;48.016;7.800;2023-05-29T01:56:05;16.05;;;14.73;;
1975;SDS011;988;48.016;7.800;2023-05-29T01:58:31;19.90;;;16.00;;
1975;SDS011;988;48.016;7.800;2023-05-29T02:00:59;16.40;;;14.90;;
1975;SDS011;988;48.016;7.800;2023-05-29T02:03:26;17.42;;;15.80;;
1975;SDS011;988;48.016;7.800;2023-05-29T02:05:54;18.45;;;15.32;;
1975;SDS011;988;48.016;7.800;2023-05-29T02:08:20;18.45;;;16.58;;
1975;SDS011;988;48.016;7.800;2023-05-29T02:10:46;16.60;;;15.00;;
1975;SDS011;988;48.016;7.800;2023-05-29T02:13:12;15.93;;;13.97;;
1975;SDS011;988;48.016;7.800;2023-05-29T02:15:37;17.37;;;15.77;;
1975;SDS011;988;48.016;7.800;2023-05-29T02:18:03;16.73;;;15.30;;
1975;SDS011;988;48.016;7.800;2023-05-29T02:20:28;17.40;;;15.70;;
1975;SDS011;988;48.016;7.800;2023-05-29T02:22:54;17.20;;;15.77;;
1975;SDS011;988;48.016;7.800;2023-05-29T02:25:20;16.17;;;14.67;;
1975;SDS011;988;48.016;7.800;2023-05-29T02:27:45;16.10;;;14.70;;
1975;SDS011;988;48.016;7.800;2023-05-29T02:30:11;17.63;;;15.93;;
1975;SDS011;988;48.016;7.800;2023-05-29T02:32:37;17.07;;;15.67;;
1975;SDS011;988;48.016;7.800;2023-05-29T02:35:02;16.07;;;14.77;;
1975;SDS011;988;48.016;7.800;2023-05-29T02:37:28;16.07;;;14.67;;
1975;SDS011;988;48.016;7.800;2023-05-29T02:39:54;17.93;;;16.40;;
1975;SDS011;988;48.016;7.800;2023-05-29T02:42:19;16.47;;;15.27;;
1975;SDS011;988;48.016;7.800;2023-05-29T02:44:45;16.73;;;15.17;;
1975;SDS011;988;48.016;7.800;2023-05-29T02:47:11;15.90;;;14.57;;
1975;SDS011;988;48.016;7.800;2023-05-29T02:49:36;17.67;;;16.10;;
1975;SDS011;988;48.016;7.800;2023-05-29T02:52:02;18.33;;;16.63;;
1975;SDS011;988;48.016;7.800;2023-05-29T02:54:27;18.00;;;16.47;;
1975;SDS011;988;48.016;7.800;2023-05-29T02:56:53;18.50;;;17.10;;
1975;SDS011;988;48.016;7.800;2023-05-29T02:59:18;19.23;;;17.63;;
1975;SDS011;988;48.016;7.800;2023-05-29T03:01:44;18.40;;;16.90;;
1975;SDS011;988;48.016;7.800;2023-05-29T03:04:10;17.58;;;15.98;;
1975;SDS011;988;48.016;7.800;2023-05-29T03:06:36;16.47;;;15.20;;
1975;SDS011;988;48.016;7.800;2023-05-29T03:09:05;16.70;;;15.37;;
1975;SDS011;988;48.016;7.800;2023-05-29T03:11:31;16.83;;;15.45;;
1975;SDS011;988;48.016;7.800;2023-05-29T03:13:57;16.48;;;14.98;;
1975;SDS011;988;48.016;7.800;2023-05-29T03:16:23;16.37;;;14.87;;
1975;SDS011;988;48.016;7.800;2023-05-29T03:18:50;17.17;;;14.90;;
1975;SDS011;988;48.016;7.800;2023-05-29T03:21:15;16.97;;;15.33;;
1975;SDS011;988;48.016;7.800;2023-05-29T03:23:42;17.20;;;15.45;;
1975;SDS011;988;48.016;7.800;2023-05-29T03:26:07;16.40;;;14.93;;
1975;SDS011;988;48.016;7.800;2023-05-29T03:28:33;16.50;;;15.10;;
1975;SDS011;988;48.016;7.800;2023-05-29T03:30:59;13.68;;;12.35;;
1975;SDS011;988;48.016;7.800;2023-05-29T03:33:25;15.53;;;14.13;;
1975;SDS011;988;48.016;7.800;2023-05-29T03:35:50;16.73;;;14.43;;
1975;SDS011;988;48.016;7.800;2023-05-29T03:38:16;14.80;;;13.57;;
1975;SDS011;988;48.016;7.800;2023-05-29T03:40:41;13.20;;;12.20;;
1975;SDS011;988;48.016;7.800;2023-05-29T03:43:07;15.00;;;13.57;;
1975;SDS011;988;48.016;7.800;2023-05-29T03:45:33;15.33;;;14.03;;
1975;SDS011;988;48.016;7.800;2023-05-29T03:47:58;13.77;;;12.50;;
1975;SDS011;988;48.016;7.800;2023-05-29T03:50:24;14.80;;;13.40;;
1975;SDS011;988;48.016;7.800;2023-05-29T03:52:49;14.47;;;12.90;;
1975;SDS011;988;48.016;7.800;2023-05-29T03:55:15;14.03;;;12.70;;
1975;SDS011;988;48.016;7.800;2023-05-29T03:57:41;17.65;;;14.32;;
1975;SDS011;988;48.016;7.800;2023-05-29T04:00:07;17.73;;;14.50;;
1975;SDS011;988;48.016;7.800;2023-05-29T04:02:37;15.43;;;13.98;;
1975;SDS011;988;48.016;7.800;2023-05-29T04:05:04;18.20;;;13.45;;
1975;SDS011;988;48.016;7.800;2023-05-29T04:07:31;18.40;;;14.60;;
1975;SDS011;988;48.016;7.800;2023-05-29T04:10:02;14.00;;;12.57;;
1975;SDS011;988;48.016;7.800;2023-05-29T04:12:28;15.40;;;13.70;;
1975;SDS011;988;48.016;7.800;2023-05-29T04:14:53;15.00;;;13.50;;
1975;SDS011;988;48.016;7.800;2023-05-29T04:17:19;18.30;;;15.07;;
1975;SDS011;988;48.016;7.800;2023-05-29T04:19:45;17.17;;;14.00;;
1975;SDS011;988;48.016;7.800;2023-05-29T04:22:10;15.13;;;13.60;;
1975;SDS011;988;48.016;7.800;2023-05-29T04:24:36;17.00;;;15.27;;
1975;SDS011;988;48.016;7.800;2023-05-29T04:27:02;18.03;;;15.53;;
1975;SDS011;988;48.016;7.800;2023-05-29T04:29:28;17.37;;;15.90;;
1975;SDS011;988;48.016;7.800;2023-05-29T04:31:54;16.15;;;14.75;;
1975;SDS011;988;48.016;7.800;2023-05-29T04:34:20;17.03;;;15.37;;
1975;SDS011;988;48.016;7.800;2023-05-29T04:36:46;17.25;;;15.73;;
1975;SDS011;988;48.016;7.800;2023-05-29T04:39:13;17.00;;;15.40;;
1975;SDS011;988;48.016;7.800;2023-05-29T04:41:42;16.90;;;15.50;;
1975;SDS011;988;48.016;7.800;2023-05-29T04:44:08;17.10;;;15.80;;
1975;SDS011;988;48.016;7.800;2023-05-29T04:46:36;18.70;;;17.10;;
1975;SDS011;988;48.016;7.800;2023-05-29T04:49:03;18.60;;;17.17;;
1975;SDS011;988;48.016;7.800;2023-05-29T04:51:29;18.48;;;16.60;;
1975;SDS011;988;48.016;7.800;2023-05-29T04:53:55;18.27;;;16.83;;
1975;SDS011;988;48.016;7.800;2023-05-29T04:56:21;19.97;;;18.07;;
1975;SDS011;988;48.016;7.800;2023-05-29T04:58:47;18.70;;;17.20;;
1975;SDS011;988;48.016;7.800;2023-05-29T05:01:13;17.97;;;16.63;;
1975;SDS011;988;48.016;7.800;2023-05-29T05:03:40;18.60;;;17.05;;
1975;SDS011;988;48.016;7.800;2023-05-29T05:06:05;19.10;;;17.20;;
1975;SDS011;988;48.016;7.800;2023-05-29T05:08:32;17.75;;;16.33;;
1975;SDS011;988;48.016;7.800;2023-05-29T05:10:59;21.27;;;19.27;;
1975;SDS011;988;48.016;7.800;2023-05-29T05:13:25;19.50;;;17.77;;
1975;SDS011;988;48.016;7.800;2023-05-29T05:15:51;18.70;;;17.10;;
1975;SDS011;988;48.016;7.800;2023-05-29T05:18:16;18.80;;;17.10;;
1975;SDS011;988;48.016;7.800;2023-05-29T05:20:42;19.83;;;18.03;;
1975;SDS011;988;48.016;7.800;2023-05-29T05:23:07;19.90;;;18.20;;
1975;SDS011;988;48.016;7.800;2023-05-29T05:25:33;20.30;;;18.58;;
1975;SDS011;988;48.016;7.800;2023-05-29T05:28:00;19.00;;;17.50;;
1975;SDS011;988;48.016;7.800;2023-05-29T05:30:28;20.20;;;18.60;;
1975;SDS011;988;48.016;7.800;2023-05-29T05:32:53;18.80;;;17.40;;
1975;SDS011;988;48.016;7.800;2023-05-29T05:35:19;20.05;;;18.25;;
1975;SDS011;988;48.016;7.800;2023-05-29T05:37:45;20.80;;;19.30;;
1975;SDS011;988;48.016;7.800;2023-05-29T05:40:11;21.50;;;19.80;;
1975;SDS011;988;48.016;7.800;2023-05-29T05:42:37;22.13;;;20.33;;
1975;SDS011;988;48.016;7.800;2023-05-29T05:45:03;21.27;;;19.50;;
1975;SDS011;988;48.016;7.800;2023-05-29T05:47:29;21.73;;;19.90;;
1975;SDS011;988;48.016;7.800;2023-05-29T05:49:55;22.43;;;20.60;;
1975;SDS011;988;48.016;7.800;2023-05-29T05:52:20;19.53;;;18.10;;
1975;SDS011;988;48.016;7.800;2023-05-29T05:54:47;22.73;;;21.00;;
1975;SDS011;988;48.016;7.800;2023-05-29T05:57:13;22.33;;;20.60;;
1975;SDS011;988;48.016;7.800;2023-05-29T05:59:38;21.33;;;19.80;;
1975;SDS011;988;48.016;7.800;2023-05-29T06:02:04;20.17;;;18.57;;
1975;SDS011;988;48.016;7.800;2023-05-29T06:04:30;20.73;;;18.93;;
1975;SDS011;988;48.016;7.800;2023-05-29T06:06:55;20.77;;;19.23;;
1975;SDS011;988;48.016;7.800;2023-05-29T06:09:21;20.90;;;19.50;;
1975;SDS011;988;48.016;7.800;2023-05-29T06:11:47;19.50;;;17.90;;
1975;SDS011;988;48.016;7.800;2023-05-29T06:14:13;20.60;;;19.30;;
1975;SDS011;988;48.016;7.800;2023-05-29T06:16:39;21.17;;;19.53;;
1975;SDS011;988;48.016;7.800;2023-05-29T06:19:05;21.47;;;19.87;;
1975;SDS011;988;48.016;7.800;2023-05-29T06:21:31;20.07;;;18.60;;
1975;SDS011;988;48.016;7.800;2023-05-29T06:23:57;20.63;;;19.00;;
1975;SDS011;988;48.016;7.800;2023-05-29T06:26:23;19.93;;;18.27;;
1975;SDS011;988;48.016;7.800;2023-05-29T06:28:52;20.87;;;19.17;;
1975;SDS011;988;48.016;7.800;2023-05-29T06:31:17;21.10;;;19.53;;
1975;SDS011;988;48.016;7.800;2023-05-29T06:33:44;21.20;;;19.80;;
1975;SDS011;988;48.016;7.800;2023-05-29T06:36:10;20.70;;;19.30;;
1975;SDS011;988;48.016;7.800;2023-05-29T06:38:35;21.50;;;19.90;;
1975;SDS011;988;48.016;7.800;2023-05-29T06:41:01;21.53;;;19.90;;
1975;SDS011;988;48.016;7.800;2023-05-29T06:43:27;22.17;;;20.47;;
1975;SDS011;988;48.016;7.800;2023-05-29T06:45:53;20.40;;;19.20;;
1975;SDS011;988;48.016;7.800;2023-05-29T06:48:18;21.77;;;20.27;;
1975;SDS011;988;48.016;7.800;2023-05-29T06:50:44;21.97;;;20.47;;
1975;SDS011;988;48.016;7.800;2023-05-29T06:53:10;21.00;;;19.23;;
1975;SDS011;988;48.016;7.800;2023-05-29T06:55:35;20.87;;;19.47;;
1975;SDS011;988;48.016;7.800;2023-05-29T06:58:01;22.97;;;21.27;;
1975;SDS011;988;48.016;7.800;2023-05-29T07:00:26;21.40;;;19.90;;
1975;SDS011;988;48.016;7.800;2023-05-29T07:02:52;22.70;;;20.90;;
1975;SDS011;988;48.016;7.800;2023-05-29T07:05:18;20.83;;;19.40;;
1975;SDS011;988;48.016;7.800;2023-05-29T07:07:43;20.60;;;19.10;;
1975;SDS011;988;48.016;7.800;2023-05-29T07:10:09;20.20;;;18.60;;
1975;SDS011;988;48.016;7.800;2023-05-29T07:12:35;22.13;;;20.00;;
1975;SDS011;988;48.016;7.800;2023-05-29T07:15:00;20.70;;;19.27;;
1975;SDS011;988;48.016;7.800;2023-05-29T07:17:26;20.03;;;18.53;;
1975;SDS011;988;48.016;7.800;2023-05-29T07:19:51;21.23;;;19.43;;
1975;SDS011;988;48.016;7.800;2023-05-29T07:22:19;20.40;;;18.87;;
1975;SDS011;988;48.016;7.800;2023-05-29T07:24:45;20.23;;;18.87;;
1975;SDS011;988;48.016;7.800;2023-05-29T07:27:10;20.00;;;18.70;;
1975;SDS011;988;48.016;7.800;2023-05-29T07:29:36;20.80;;;19.40;;
1975;SDS011;988;48.016;7.800;2023-05-29T07:32:01;20.90;;;19.30;;
1975;SDS011;988;48.016;7.800;2023-05-29T07:34:27;21.57;;;19.77;;
1975;SDS011;988;48.016;7.800;2023-05-29T07:36:57;19.90;;;18.70;;
1975;SDS011;988;48.016;7.800;2023-05-29T07:39:26;21.53;;;19.80;;
1975;SDS011;988;48.016;7.800;2023-05-29T07:41:52;22.10;;;20.40;;
1975;SDS011;988;48.016;7.800;2023-05-29T07:44:18;22.80;;;21.30;;
1975;SDS011;988;48.016;7.800;2023-05-29T07:46:43;22.23;;;20.73;;
1975;SDS011;988;48.016;7.800;2023-05-29T07:49:10;23.07;;;21.03;;
1975;SDS011;988;48.016;7.800;2023-05-29T07:51:35;23.03;;;21.50;;
1975;SDS011;988;48.016;7.800;2023-05-29T07:54:01;23.10;;;21.43;;
1975;SDS011;988;48.016;7.800;2023-05-29T07:56:27;23.00;;;21.60;;
1975;SDS011;988;48.016;7.800;2023-05-29T07:58:53;23.27;;;21.80;;
1975;SDS011;988;48.016;7.800;2023-05-29T08:01:20;23.37;;;21.90;;
1975;SDS011;988;48.016;7.800;2023-05-29T08:03:46;23.63;;;22.10;;
1975;SDS011;988;48.016;7.800;2023-05-29T08:06:12;22.70;;;21.20;;
1975;SDS011;988;48.016;7.800;2023-05-29T08:08:38;24.07;;;22.43;;
1975;SDS011;988;48.016;7.800;2023-05-29T08:11:03;22.13;;;20.83;;
1975;SDS011;988;48.016;7.800;2023-05-29T08:13:29;23.13;;;21.40;;
1975;SDS011;988;48.016;7.800;2023-05-29T08:15:55;23.40;;;22.00;;
1975;SDS011;988;48.016;7.800;2023-05-29T08:18:24;25.00;;;23.20;;
1975;SDS011;988;48.016;7.800;2023-05-29T08:20:50;24.00;;;22.30;;
1975;SDS011;988;48.016;7.800;2023-05-29T08:23:17;23.60;;;22.20;;
1975;SDS011;988;48.016;7.800;2023-05-29T08:25:43;23.80;;;22.00;;
1975;SDS011;988;48.016;7.800;2023-05-29T08:28:09;23.43;;;22.07;;
1975;SDS011;988;48.016;7.800;2023-05-29T08:30:35;22.73;;;21.47;;
1975;SDS011;988;48.016;7.800;2023-05-29T08:33:02;23.83;;;22.33;;
1975;SDS011;988;48.016;7.800;2023-05-29T08:35:28;23.27;;;21.77;;
1975;SDS011;988;48.016;7.800;2023-05-29T08:37:54;23.97;;;21.97;;
1975;SDS011;988;48.016;7.800;2023-05-29T08:40:19;23.47;;;21.97;;
1975;SDS011;988;48.016;7.800;2023-05-29T08:42:47;23.40;;;22.00;;
1975;SDS011;988;48.016;7.800;2023-05-29T08:45:19;22.40;;;21.00;;
1975;SDS011;988;48.016;7.800;2023-05-29T08:47:49;22.73;;;21.23;;
1975;SDS011;988;48.016;7.800;2023-05-29T08:50:17;23.30;;;22.00;;
1975;SDS011;988;48.016;7.800;2023-05-29T08:52:45;22.43;;;21.03;;
1975;SDS011;988;48.016;7.800;2023-05-29T08:55:11;24.37;;;22.70;;
1975;SDS011;988;48.016;7.800;2023-05-29T08:57:37;23.70;;;22.10;;
1975;SDS011;988;48.016;7.800;2023-05-29T09:00:04;23.10;;;21.57;;
1975;SDS011;988;48.016;7.800;2023-05-29T09:02:37;23.40;;;21.97;;
1975;SDS011;988;48.016;7.800;2023-05-29T09:05:04;23.10;;;21.60;;
1975;SDS011;988;48.016;7.800;2023-05-29T09:07:31;22.83;;;21.43;;
1975;SDS011;988;48.016;7.800;2023-05-29T09:09:57;24.20;;;22.40;;
1975;SDS011;988;48.016;7.800;2023-05-29T09:12:23;24.73;;;22.53;;
1975;SDS011;988;48.016;7.800;2023-05-29T09:14:50;24.27;;;22.83;;
1975;SDS011;988;48.016;7.800;2023-05-29T09:17:15;26.67;;;25.17;;
1975;SDS011;988;48.016;7.800;2023-05-29T09:19:41;25.60;;;24.20;;
1975;SDS011;988;48.016;7.800;2023-05-29T09:22:11;26.73;;;25.17;;
1975;SDS011;988;48.016;7.800;2023-05-29T09:24:39;27.20;;;25.40;;
1975;SDS011;988;48.016;7.800;2023-05-29T09:27:06;27.07;;;25.47;;
1975;SDS011;988;48.016;7.800;2023-05-29T09:29:37;27.30;;;25.70;;
1975;SDS011;988;48.016;7.800;2023-05-29T09:32:12;26.60;;;25.10;;
1975;SDS011;988;48.016;7.800;2023-05-29T09:34:39;29.00;;;27.30;;
1975;SDS011;988;48.016;7.800;2023-05-29T09:37:05;24.33;;;22.83;;
1975;SDS011;988;48.016;7.800;2023-05-29T09:42:07;24.27;;;22.73;;
1975;SDS011;988;48.016;7.800;2023-05-29T09:44:34;25.50;;;24.00;;
1975;SDS011;988;48.016;7.800;2023-05-29T09:46:59;24.97;;;23.50;;
1975;SDS011;988;48.016;7.800;2023-05-29T09:49:25;24.23;;;22.80;;
1975;SDS011;988;48.016;7.800;2023-05-29T09:51:55;24.00;;;22.40;;
1975;SDS011;988;48.016;7.800;2023-05-29T09:54:24;24.67;;;23.27;;
1975;SDS011;988;48.016;7.800;2023-05-29T09:56:54;32.33;;;30.20;;
1975;SDS011;988;48.016;7.800;2023-05-29T09:59:21;24.37;;;22.83;;
1975;SDS011;988;48.016;7.800;2023-05-29T10:01:49;23.77;;;22.30;;
1975;SDS011;988;48.016;7.800;2023-05-29T10:04:35;23.53;;;22.23;;
1975;SDS011;988;48.016;7.800;2023-05-29T10:07:04;22.50;;;21.20;;
1975;SDS011;988;48.016;7.800;2023-05-29T10:09:35;24.23;;;22.63;;
1975;SDS011;988;48.016;7.800;2023-05-29T10:12:06;24.90;;;23.07;;
1975;SDS011;988;48.016;7.800;2023-05-29T10:14:33;22.50;;;21.17;;
1975;SDS011;988;48.016;7.800;2023-05-29T10:17:01;23.93;;;22.53;;
1975;SDS011;988;48.016;7.800;2023-05-29T10:19:31;23.00;;;21.70;;
1975;SDS011;988;48.016;7.800;2023-05-29T10:21:57;23.57;;;21.87;;
1975;SDS011;988;48.016;7.800;2023-05-29T10:24:26;24.73;;;23.23;;
1975;SDS011;988;48.016;7.800;2023-05-29T10:26:53;28.90;;;23.63;;
1975;SDS011;988;48.016;7.800;2023-05-29T10:29:37;24.93;;;23.23;;
1975;SDS011;988;48.016;7.800;2023-05-29T10:37:54;24.70;;;23.23;;
1975;SDS011;988;48.016;7.800;2023-05-29T10:40:27;25.53;;;23.93;;
1975;SDS011;988;48.016;7.800;2023-05-29T10:42:53;23.50;;;22.00;;
1975;SDS011;988;48.016;7.800;2023-05-29T10:50:38;23.40;;;22.10;;
1975;SDS011;988;48.016;7.800;2023-05-29T10:53:10;23.80;;;22.47;;
1975;SDS011;988;48.016;7.800;2023-05-29T10:55:42;23.90;;;22.30;;
1975;SDS011;988;48.016;7.800;2023-05-29T10:58:13;23.13;;;21.70;;
1975;SDS011;988;48.016;7.800;2023-05-29T11:00:46;23.37;;;21.90;;
1975;SDS011;988;48.016;7.800;2023-05-29T11:03:22;26.13;;;24.63;;
1975;SDS011;988;48.016;7.800;2023-05-29T11:05:56;23.97;;;22.30;;
1975;SDS011;988;48.016;7.800;2023-05-29T11:08:33;23.07;;;21.77;;
1975;SDS011;988;48.016;7.800;2023-05-29T11:11:14;23.50;;;22.13;;
1975;SDS011;988;48.016;7.800;2023-05-29T11:13:40;22.90;;;21.70;;
1975;SDS011;988;48.016;7.800;2023-05-29T11:18:54;23.30;;;21.73;;
1975;SDS011;988;48.016;7.800;2023-05-29T11:24:08;23.27;;;21.77;;
1975;SDS011;988;48.016;7.800;2023-05-29T11:26:46;26.33;;;24.40;;
1975;SDS011;988;48.016;7.800;2023-05-29T11:29:12;25.70;;;24.00;;
1975;SDS011;988;48.016;7.800;2023-05-29T11:31:38;26.57;;;24.97;;
1975;SDS011;988;48.016;7.800;2023-05-29T11:34:05;23.90;;;22.60;;
1975;SDS011;988;48.016;7.800;2023-05-29T11:36:39;25.70;;;24.20;;
1975;SDS011;988;48.016;7.800;2023-05-29T11:39:04;26.23;;;24.70;;
1975;SDS011;988;48.016;7.800;2023-05-29T11:41:30;28.10;;;26.50;;
1975;SDS011;988;48.016;7.800;2023-05-29T11:43:56;24.03;;;22.83;;
1975;SDS011;988;48.016;7.800;2023-05-29T11:46:23;24.33;;;23.03;;
1975;SDS011;988;48.016;7.800;2023-05-29T11:48:51;24.90;;;23.53;;
1975;SDS011;988;48.016;7.800;2023-05-29T11:51:17;24.80;;;23.40;;
1975;SDS011;988;48.016;7.800;2023-05-29T11:53:43;26.20;;;24.70;;
1975;SDS011;988;48.016;7.800;2023-05-29T11:56:11;26.40;;;24.45;;
1975;SDS011;988;48.016;7.800;2023-05-29T11:58:38;26.33;;;24.63;;
1975;SDS011;988;48.016;7.800;2023-05-29T12:01:04;26.00;;;24.40;;
1975;SDS011;988;48.016;7.800;2023-05-29T12:03:31;25.73;;;24.23;;
1975;SDS011;988;48.016;7.800;2023-05-29T12:06:04;26.10;;;24.10;;
1975;SDS011;988;48.016;7.800;2023-05-29T12:08:31;26.03;;;24.53;;
1975;SDS011;988;48.016;7.800;2023-05-29T12:10:57;25.77;;;24.30;;
1975;SDS011;988;48.016;7.800;2023-05-29T12:13:22;25.50;;;24.00;;
1975;SDS011;988;48.016;7.800;2023-05-29T12:15:49;25.70;;;23.97;;
1975;SDS011;988;48.016;7.800;2023-05-29T12:18:17;26.80;;;25.00;;
1975;SDS011;988;48.016;7.800;2023-05-29T12:20:43;26.00;;;24.50;;
1975;SDS011;988;48.016;7.800;2023-05-29T12:23:09;25.33;;;23.67;;
1975;SDS011;988;48.016;7.800;2023-05-29T12:25:37;27.50;;;25.77;;
1975;SDS011;988;48.016;7.800;2023-05-29T12:28:02;25.40;;;23.80;;
1975;SDS011;988;48.016;7.800;2023-05-29T12:30:28;26.03;;;24.43;;
1975;SDS011;988;48.016;7.800;2023-05-29T12:32:54;27.13;;;25.57;;
1975;SDS011;988;48.016;7.800;2023-05-29T12:35:20;25.10;;;23.40;;
1975;SDS011;988;48.016;7.800;2023-05-29T12:37:59;24.73;;;23.10;;
1975;SDS011;988;48.016;7.800;2023-05-29T12:40:27;25.57;;;24.10;;
1975;SDS011;988;48.016;7.800;2023-05-29T12:43:05;26.10;;;24.70;;
1975;SDS011;988;48.016;7.800;2023-05-29T12:45:34;26.60;;;25.13;;
1975;SDS011;988;48.016;7.800;2023-05-29T12:48:00;26.80;;;25.20;;
1975;SDS011;988;48.016;7.800;2023-05-29T12:50:34;26.03;;;24.53;;
1975;SDS011;988;48.016;7.800;2023-05-29T12:55:31;27.57;;;25.97;;
1975;SDS011;988;48.016;7.800;2023-05-29T12:58:01;25.90;;;24.30;;
1975;SDS011;988;48.016;7.800;2023-05-29T13:00:27;25.13;;;23.37;;
1975;SDS011;988;48.016;7.800;2023-05-29T13:02:54;25.27;;;23.83;;
1975;SDS011;988;48.016;7.800;2023-05-29T13:05:19;26.23;;;24.53;;
1975;SDS011;988;48.016;7.800;2023-05-29T13:07:47;24.80;;;23.30;;
1975;SDS011;988;48.016;7.800;2023-05-29T13:10:14;26.30;;;24.70;;
1975;SDS011;988;48.016;7.800;2023-05-29T13:12:40;26.50;;;24.80;;
1975;SDS011;988;48.016;7.800;2023-05-29T13:15:06;25.30;;;23.80;;
1975;SDS011;988;48.016;7.800;2023-05-29T13:17:32;24.93;;;23.33;;
1975;SDS011;988;48.016;7.800;2023-05-29T13:19:58;24.67;;;23.17;;
1975;SDS011;988;48.016;7.800;2023-05-29T13:22:24;26.40;;;24.67;;
1975;SDS011;988;48.016;7.800;2023-05-29T13:24:55;26.77;;;24.67;;
1975;SDS011;988;48.016;7.800;2023-05-29T13:27:22;24.27;;;22.83;;
1975;SDS011;988;48.016;7.800;2023-05-29T13:29:48;24.90;;;23.50;;
1975;SDS011;988;48.016;7.800;2023-05-29T13:32:14;25.87;;;23.83;;
1975;SDS011;988;48.016;7.800;2023-05-29T13:34:40;24.87;;;23.30;;
1975;SDS011;988;48.016;7.800;2023-05-29T13:37:06;26.40;;;24.80;;
1975;SDS011;988;48.016;7.800;2023-05-29T13:39:32;25.87;;;24.47;;
1975;SDS011;988;48.016;7.800;2023-05-29T13:41:58;27.90;;;26.20;;
1975;SDS011;988;48.016;7.800;2023-05-29T13:44:23;27.37;;;25.77;;
1975;SDS011;988;48.016;7.800;2023-05-29T13:46:49;27.83;;;26.20;;
1975;SDS011;988;48.016;7.800;2023-05-29T13:49:15;27.20;;;25.60;;
1975;SDS011;988;48.016;7.800;2023-05-29T13:51:41;27.80;;;26.20;;
1975;SDS011;988;48.016;7.800;2023-05-29T13:54:06;27.43;;;26.03;;
1975;SDS011;988;48.016;7.800;2023-05-29T13:56:32;27.53;;;25.67;;
1975;SDS011;988;48.016;7.800;2023-05-29T13:58:58;26.90;;;25.40;;
1975;SDS011;988;48.016;7.800;2023-05-29T14:01:29;27.70;;;26.10;;
1975;SDS011;988;48.016;7.800;2023-05-29T14:03:55;26.27;;;24.70;;
1975;SDS011;988;48.016;7.800;2023-05-29T14:06:21;27.07;;;25.30;;
1975;SDS011;988;48.016;7.800;2023-05-29T14:08:47;27.50;;;25.70;;
1975;SDS011;988;48.016;7.800;2023-05-29T14:11:12;26.17;;;24.57;;
1975;SDS011;988;48.016;7.800;2023-05-29T14:13:38;26.07;;;24.57;;
1975;SDS011;988;48.016;7.800;2023-05-29T14:16:03;25.70;;;24.20;;
1975;SDS011;988;48.016;7.800;2023-05-29T14:18:29;27.27;;;25.57;;
1975;SDS011;988;48.016;7.800;2023-05-29T14:20:54;27.23;;;25.73;;
1975;SDS011;988;48.016;7.800;2023-05-29T14:23:20;25.50;;;24.10;;
1975;SDS011;988;48.016;7.800;2023-05-29T14:25:45;26.60;;;24.90;;
1975;SDS011;988;48.016;7.800;2023-05-29T14:28:11;26.43;;;24.83;;
1975;SDS011;988;48.016;7.800;2023-05-29T14:30:37;26.67;;;25.00;;
1975;SDS011;988;48.016;7.800;2023-05-29T14:33:02;26.57;;;24.97;;
1975;SDS011;988;48.016;7.800;2023-05-29T14:35:29;26.30;;;24.63;;
1975;SDS011;988;48.016;7.800;2023-05-29T14:37:55;26.30;;;24.67;;
1975;SDS011;988;48.016;7.800;2023-05-29T14:40:22;26.37;;;24.77;;
1975;SDS011;988;48.016;7.800;2023-05-29T14:42:47;26.00;;;24.40;;
1975;SDS011;988;48.016;7.800;2023-05-29T14:45:13;26.17;;;24.67;;
1975;SDS011;988;48.016;7.800;2023-05-29T14:47:39;26.37;;;24.47;;
1975;SDS011;988;48.016;7.800;2023-05-29T14:50:06;26.17;;;24.47;;
1975;SDS011;988;48.016;7.800;2023-05-29T14:52:32;25.40;;;23.83;;
1975;SDS011;988;48.016;7.800;2023-05-29T14:54:58;25.17;;;23.67;;
1975;SDS011;988;48.016;7.800;2023-05-29T14:57:26;25.80;;;24.30;;
1975;SDS011;988;48.016;7.800;2023-05-29T14:59:51;25.80;;;24.30;;
1975;SDS011;988;48.016;7.800;2023-05-29T15:02:17;28.10;;;26.17;;
1975;SDS011;988;48.016;7.800;2023-05-29T15:04:42;25.93;;;24.43;;
1975;SDS011;988;48.016;7.800;2023-05-29T15:07:08;26.63;;;25.13;;
1975;SDS011;988;48.016;7.800;2023-05-29T15:09:33;26.50;;;24.80;;
1975;SDS011;988;48.016;7.800;2023-05-29T15:11:59;26.47;;;24.87;;
1975;SDS011;988;48.016;7.800;2023-05-29T15:14:24;27.40;;;25.70;;
1975;SDS011;988;48.016;7.800;2023-05-29T15:16:50;24.60;;;23.10;;
1975;SDS011;988;48.016;7.800;2023-05-29T15:19:16;24.37;;;22.77;;
1975;SDS011;988;48.016;7.800;2023-05-29T15:21:41;23.63;;;22.23;;
1975;SDS011;988;48.016;7.800;2023-05-29T15:24:07;25.10;;;23.60;;
1975;SDS011;988;48.016;7.800;2023-05-29T15:26:33;24.67;;;23.07;;
1975;SDS011;988;48.016;7.800;2023-05-29T15:28:59;24.03;;;22.43;;